Time;durP1;ratioP1;P1;durP2;ratioP2;P2;SDS_P1;SDS_P2;PMS_P1;PMS_P2;Temp;Humidity;BMP_temperature;BMP_pressure;BME280_temperature;BME280_humidity;BME280_pressure;Samples;Min_cycle;Max_cycle;Signal;HPM_P1;HPM_P2
2022/10/09 00:02:11;;;;;;;9.55;4.72;;;7.90;99.90;;;;;;5074491;28;20044;-62
2022/10/09 00:04:38;;;;;;;10.10;5.53;;;7.90;99.90;;;;;;5061718;28;20059;-62
2022/10/09 00:07:03;;;;;;;13.75;4.95;;;7.90;99.90;;;;;;5063586;28;20168;-63
2022/10/09 00:09:32;;;;;;;8.95;4.15;;;7.80;99.90;;;;;;5080119;28;20126;-62
2022/10/09 00:12:01;;;;;;;11.13;5.18;;;7.80;99.90;;;;;;5061130;28;20052;-62
2022/10/09 00:14:29;;;;;;;12.13;4.80;;;7.80;99.90;;;;;;5060926;28;20084;-61
2022/10/09 00:16:55;;;;;;;13.73;5.35;;;7.70;99.90;;;;;;5025901;28;20056;-60
2022/10/09 00:19:21;;;;;;;8.70;5.30;;;7.70;99.90;;;;;;5059403;28;20044;-62
2022/10/09 00:21:47;;;;;;;11.23;5.13;;;7.70;99.90;;;;;;5050937;28;20052;-62
2022/10/09 00:24:13;;;;;;;9.23;5.65;;;7.70;99.90;;;;;;5069777;28;20058;-62
2022/10/09 00:26:39;;;;;;;12.65;5.53;;;7.60;99.90;;;;;;5061279;28;20062;-62
2022/10/09 00:29:04;;;;;;;8.60;5.20;;;7.60;99.90;;;;;;5060185;28;20387;-61
2022/10/09 00:31:30;;;;;;;12.68;5.75;;;7.60;99.90;;;;;;5060657;28;20067;-62
2022/10/09 00:33:56;;;;;;;13.65;6.25;;;7.60;99.90;;;;;;5038060;28;20420;-62
2022/10/09 00:36:24;;;;;;;12.05;6.00;;;7.60;99.90;;;;;;5081994;28;20063;-62
2022/10/09 00:38:52;;;;;;;15.68;7.57;;;7.50;99.90;;;;;;5064064;28;20076;-61
2022/10/09 00:41:22;;;;;;;15.35;6.38;;;7.50;99.90;;;;;;5043100;28;20044;-64
2022/10/09 00:44:00;;;;;;;15.20;6.22;;;7.50;99.90;;;;;;5043730;28;20101;-61
2022/10/09 00:46:49;;;;;;;10.73;6.47;;;7.40;99.90;;;;;;5062649;28;20048;-61
2022/10/09 00:49:31;;;;;;;12.88;5.65;;;7.40;99.90;;;;;;5055163;28;20055;-61
2022/10/09 00:52:03;;;;;;;10.43;5.70;;;7.40;99.90;;;;;;5058181;28;20045;-62
2022/10/09 00:54:33;;;;;;;10.55;5.85;;;7.40;99.90;;;;;;5064990;28;20052;-62
2022/10/09 00:56:59;;;;;;;8.90;5.18;;;7.40;99.90;;;;;;5047352;28;20414;-63
2022/10/09 00:59:26;;;;;;;15.38;6.00;;;7.30;99.90;;;;;;5060105;28;20135;-62
2022/10/09 01:01:52;;;;;;;12.18;6.70;;;7.30;99.90;;;;;;5060482;28;20049;-62
2022/10/09 01:04:18;;;;;;;11.05;5.75;;;7.30;99.90;;;;;;5062859;28;20055;-62
2022/10/09 01:07:09;;;;;;;13.82;5.70;;;7.30;99.90;;;;;;5060345;28;20522;-62
2022/10/09 01:09:50;;;;;;;15.38;6.72;;;7.30;99.90;;;;;;5060125;28;20528;-62
2022/10/09 01:12:39;;;;;;;9.70;5.72;;;7.30;99.90;;;;;;5080483;28;20845;-62
2022/10/09 01:15:25;;;;;;;12.80;5.93;;;7.30;99.90;;;;;;5070688;28;20564;-62
2022/10/09 01:18:31;;;;;;;13.52;5.72;;;7.30;99.90;;;;;;5059447;28;20593;-62
2022/10/09 01:21:19;;;;;;;11.35;6.85;;;7.20;99.90;;;;;;5044278;28;20060;-62
2022/10/09 01:24:04;;;;;;;14.40;6.30;;;7.20;99.90;;;;;;5063223;28;20056;-60
2022/10/09 01:26:57;;;;;;;12.38;6.65;;;7.20;99.90;;;;;;5052525;28;20105;-62
2022/10/09 01:29:27;;;;;;;10.27;6.53;;;7.10;99.90;;;;;;5067278;28;20059;-62
2022/10/09 01:31:54;;;;;;;12.60;5.32;;;7.10;99.90;;;;;;5073995;28;20503;-62
2022/10/09 01:34:22;;;;;;;8.13;5.47;;;7.10;99.90;;;;;;5078364;28;20052;-62
2022/10/09 01:36:50;;;;;;;11.38;5.95;;;7.10;99.90;;;;;;5065035;28;20048;-62
2022/10/09 01:39:20;;;;;;;11.18;6.78;;;7.10;99.90;;;;;;5064474;28;20064;-61
2022/10/09 01:41:49;;;;;;;10.45;7.43;;;7.10;99.90;;;;;;5065567;28;20075;-61
2022/10/09 01:44:27;;;;;;;13.48;6.70;;;7.00;99.90;;;;;;5065304;28;20048;-61
2022/10/09 01:46:54;;;;;;;12.90;6.82;;;7.00;99.90;;;;;;5071539;28;20059;-61
2022/10/09 01:49:38;;;;;;;12.40;6.72;;;7.10;99.90;;;;;;5064121;28;20049;-62
2022/10/09 01:52:16;;;;;;;12.27;6.35;;;7.10;99.90;;;;;;5063500;28;20379;-62
2022/10/09 01:55:01;;;;;;;13.35;7.15;;;7.10;99.90;;;;;;5064609;28;20082;-61
2022/10/09 01:57:36;;;;;;;10.73;6.75;;;7.00;99.90;;;;;;5035955;28;20063;-62
2022/10/09 02:00:08;;;;;;;11.80;7.03;;;7.00;99.90;;;;;;5081163;28;20444;-64
2022/10/09 02:02:35;;;;;;;15.15;6.88;;;6.90;99.90;;;;;;5049706;28;20101;-62
2022/10/09 02:05:01;;;;;;;16.73;8.00;;;6.90;99.90;;;;;;5065012;28;20068;-62
2022/10/09 02:07:30;;;;;;;16.40;7.93;;;6.80;99.90;;;;;;5047022;28;20060;-62
2022/10/09 02:09:57;;;;;;;11.93;7.38;;;6.80;99.90;;;;;;5046287;28;20052;-62
2022/10/09 02:12:25;;;;;;;12.95;8.27;;;6.80;99.90;;;;;;5064860;28;20040;-61
2022/10/09 02:14:52;;;;;;;12.05;8.07;;;6.80;99.90;;;;;;5078702;28;20083;-62
2022/10/09 02:17:23;;;;;;;14.30;8.57;;;6.80;99.90;;;;;;5074413;28;20410;-62
2022/10/09 02:19:55;;;;;;;12.93;8.77;;;6.80;99.90;;;;;;5050332;28;20040;-61
2022/10/09 02:22:26;;;;;;;16.23;8.90;;;6.90;99.90;;;;;;5046403;28;20775;-61
2022/10/09 02:24:53;;;;;;;17.27;9.13;;;6.90;99.90;;;;;;5065282;28;20052;-61
2022/10/09 02:27:20;;;;;;;20.52;9.43;;;6.90;99.90;;;;;;5063988;28;20048;-61
2022/10/09 02:29:47;;;;;;;15.52;9.30;;;6.90;99.90;;;;;;5062973;28;20037;-61
2022/10/09 02:32:19;;;;;;;15.93;10.30;;;6.90;99.90;;;;;;5076106;28;20051;-62
2022/10/09 02:34:45;;;;;;;19.88;10.15;;;7.00;99.90;;;;;;5063543;28;20059;-61
2022/10/09 02:37:11;;;;;;;16.30;9.63;;;7.00;99.90;;;;;;5061802;28;20048;-61
2022/10/09 02:39:37;;;;;;;15.13;9.30;;;7.00;99.90;;;;;;5070698;28;20052;-60
2022/10/09 02:42:03;;;;;;;13.57;9.10;;;6.90;99.90;;;;;;5068344;28;20051;-62
2022/10/09 02:44:29;;;;;;;11.65;8.18;;;6.90;99.90;;;;;;5045426;28;20044;-61
2022/10/09 02:46:55;;;;;;;12.50;8.05;;;6.90;99.90;;;;;;5064097;28;20818;-61
2022/10/09 02:49:21;;;;;;;11.18;7.65;;;6.90;99.90;;;;;;5079509;28;20048;-61
2022/10/09 02:51:48;;;;;;;13.25;9.18;;;6.80;99.90;;;;;;5043841;28;20063;-60
2022/10/09 02:54:14;;;;;;;13.85;9.07;;;6.80;99.90;;;;;;5063130;28;20499;-61
2022/10/09 02:56:40;;;;;;;17.48;9.35;;;6.80;99.90;;;;;;5044863;28;20101;-61
2022/10/09 02:59:06;;;;;;;16.13;9.65;;;6.80;99.90;;;;;;5044673;28;20078;-61
2022/10/09 03:01:31;;;;;;;17.05;10.02;;;6.90;99.90;;;;;;5062255;28;20044;-61
2022/10/09 03:03:57;;;;;;;15.50;10.50;;;6.80;99.90;;;;;;5071373;28;20090;-61
2022/10/09 03:06:26;;;;;;;17.42;10.30;;;6.90;99.90;;;;;;5080649;28;20063;-61
2022/10/09 03:08:53;;;;;;;15.13;9.90;;;6.90;99.90;;;;;;5062850;28;20151;-61
2022/10/09 03:11:21;;;;;;;12.98;9.07;;;6.80;99.90;;;;;;5047477;28;20131;-62
2022/10/09 03:13:48;;;;;;;14.35;10.20;;;6.80;99.90;;;;;;5054512;28;20052;-62
2022/10/09 03:16:21;;;;;;;17.38;10.25;;;6.80;99.90;;;;;;5067073;28;20048;-61
2022/10/09 03:18:51;;;;;;;17.83;10.65;;;6.80;99.90;;;;;;5037052;28;20055;-61
2022/10/09 03:21:23;;;;;;;16.85;10.80;;;6.70;99.90;;;;;;5044025;28;20102;-61
2022/10/09 03:23:52;;;;;;;16.23;10.38;;;6.70;99.90;;;;;;5062112;28;20075;-61
2022/10/09 03:26:21;;;;;;;18.60;10.05;;;6.70;99.90;;;;;;5044774;28;20488;-61
2022/10/09 03:28:48;;;;;;;17.35;9.07;;;6.60;99.90;;;;;;5042055;28;20087;-62
2022/10/09 03:31:16;;;;;;;11.35;9.27;;;6.60;99.90;;;;;;5067034;28;20064;-61
2022/10/09 03:33:42;;;;;;;18.10;9.55;;;6.60;99.90;;;;;;5082891;28;20305;-61
2022/10/09 03:36:08;;;;;;;13.75;9.52;;;6.50;99.90;;;;;;5050483;28;20491;-61
2022/10/09 03:38:34;;;;;;;11.52;8.38;;;6.50;99.90;;;;;;5050537;28;20048;-61
2022/10/09 03:41:01;;;;;;;16.77;9.05;;;6.50;99.90;;;;;;5049882;28;20044;-61
2022/10/09 03:43:27;;;;;;;13.55;9.52;;;6.50;99.90;;;;;;5049411;28;20069;-61
2022/10/09 03:45:54;;;;;;;17.52;9.00;;;6.50;99.90;;;;;;5043525;28;20084;-61
2022/10/09 03:48:20;;;;;;;10.75;8.23;;;6.50;99.90;;;;;;5061987;28;20107;-62
2022/10/09 03:50:46;;;;;;;9.55;8.45;;;6.50;99.90;;;;;;5044493;28;20044;-62
2022/10/09 03:53:13;;;;;;;13.57;8.43;;;6.50;99.90;;;;;;5049743;28;20056;-61
2022/10/09 03:55:44;;;;;;;11.15;7.88;;;6.50;99.90;;;;;;5052024;28;20086;-61
2022/10/09 03:58:10;;;;;;;11.50;7.60;;;6.40;99.90;;;;;;5047910;28;20052;-61
2022/10/09 04:00:36;;;;;;;11.65;8.07;;;6.40;99.90;;;;;;5060842;28;20053;-62
2022/10/09 04:03:02;;;;;;;11.93;7.72;;;6.40;99.90;;;;;;5063449;28;20051;-61
2022/10/09 04:05:31;;;;;;;11.52;7.68;;;6.40;99.90;;;;;;5073870;28;20059;-61
2022/10/09 04:07:57;;;;;;;14.75;9.95;;;6.40;99.90;;;;;;5061898;28;20056;-60
2022/10/09 04:10:22;;;;;;;16.17;8.45;;;6.40;99.90;;;;;;5043588;28;20052;-62
2022/10/09 04:12:48;;;;;;;13.05;9.45;;;6.30;99.90;;;;;;5063503;28;20037;-61
2022/10/09 04:15:14;;;;;;;12.98;9.07;;;6.30;99.90;;;;;;5073619;28;20060;-62
2022/10/09 04:17:40;;;;;;;13.90;9.70;;;6.30;99.90;;;;;;5077390;28;20086;-61
2022/10/09 04:20:06;;;;;;;14.25;10.25;;;6.30;99.90;;;;;;5073380;28;20051;-61
2022/10/09 04:22:32;;;;;;;13.80;9.73;;;6.30;99.90;;;;;;5043063;28;20056;-62
2022/10/09 04:24:58;;;;;;;14.48;9.27;;;6.30;99.90;;;;;;5060192;28;20044;-62
2022/10/09 04:27:24;;;;;;;13.85;9.43;;;6.30;99.90;;;;;;5061687;28;20055;-62
2022/10/09 04:29:50;;;;;;;16.92;10.90;;;6.20;99.90;;;;;;5026749;28;20059;-63
2022/10/09 04:32:16;;;;;;;15.23;10.38;;;6.20;99.90;;;;;;5072171;28;20969;-61
2022/10/09 04:34:42;;;;;;;17.17;10.23;;;6.20;99.90;;;;;;5047468;28;20056;-62
2022/10/09 04:37:08;;;;;;;15.90;10.73;;;6.20;99.90;;;;;;5032585;28;20628;-60
2022/10/09 04:39:34;;;;;;;18.88;10.50;;;6.20;99.90;;;;;;5062041;28;20127;-61
2022/10/09 04:42:05;;;;;;;17.65;10.48;;;6.20;99.90;;;;;;5044268;28;20435;-61
2022/10/09 04:44:37;;;;;;;16.88;10.70;;;6.20;99.90;;;;;;5046342;28;20045;-61
2022/10/09 04:47:03;;;;;;;17.23;11.27;;;6.20;99.90;;;;;;5061713;28;20144;-62
2022/10/09 04:49:29;;;;;;;18.58;10.65;;;6.20;99.90;;;;;;5070541;28;20534;-61
2022/10/09 04:51:54;;;;;;;20.80;11.73;;;6.20;99.90;;;;;;5066048;28;20048;-61
2022/10/09 04:54:22;;;;;;;17.52;10.68;;;6.20;99.90;;;;;;5033498;28;20045;-61
2022/10/09 04:56:48;;;;;;;16.27;10.50;;;6.20;99.90;;;;;;5048351;28;20569;-62
2022/10/09 04:59:13;;;;;;;18.63;11.70;;;6.20;99.90;;;;;;5057400;28;20052;-61
2022/10/09 05:01:39;;;;;;;19.30;11.23;;;6.20;99.90;;;;;;5052702;28;20044;-62
2022/10/09 05:04:07;;;;;;;12.82;10.77;;;6.20;99.90;;;;;;5072714;28;20048;-61
2022/10/09 05:06:33;;;;;;;17.48;11.23;;;6.20;99.90;;;;;;5063640;28;20095;-61
2022/10/09 05:08:59;;;;;;;18.00;12.13;;;6.20;99.90;;;;;;5062752;28;20152;-62
2022/10/09 05:11:25;;;;;;;15.65;11.02;;;6.20;99.90;;;;;;5061124;28;20068;-62
2022/10/09 05:13:54;;;;;;;14.70;10.93;;;6.10;99.90;;;;;;5062206;28;20151;-62
2022/10/09 05:16:23;;;;;;;16.15;10.75;;;6.20;99.90;;;;;;5052028;28;20513;-61
2022/10/09 05:18:52;;;;;;;14.35;9.65;;;6.10;99.90;;;;;;5058231;28;20051;-62
2022/10/09 05:21:19;;;;;;;12.63;10.00;;;6.10;99.90;;;;;;5064020;28;20529;-61
2022/10/09 05:23:45;;;;;;;15.20;10.15;;;6.10;99.90;;;;;;5059499;28;20044;-61
2022/10/09 05:26:14;;;;;;;13.93;9.05;;;6.00;99.90;;;;;;5062033;28;20060;-62
2022/10/09 05:28:40;;;;;;;9.75;8.60;;;5.90;99.90;;;;;;5063708;28;20569;-61
2022/10/09 05:31:17;;;;;;;11.02;7.93;;;5.90;99.90;;;;;;5063844;28;20064;-60
2022/10/09 05:33:43;;;;;;;10.02;7.68;;;5.90;99.90;;;;;;5057424;28;20051;-61
2022/10/09 05:36:09;;;;;;;11.40;7.32;;;5.80;99.90;;;;;;5061420;28;20484;-61
2022/10/09 05:38:35;;;;;;;9.77;6.80;;;5.80;99.90;;;;;;5064448;28;20128;-61
2022/10/09 05:41:05;;;;;;;9.00;7.15;;;5.80;99.90;;;;;;5064193;28;20049;-61
2022/10/09 05:43:35;;;;;;;11.77;7.25;;;5.80;99.90;;;;;;5050700;28;20087;-60
2022/10/09 05:46:07;;;;;;;9.98;7.38;;;5.80;99.90;;;;;;5058097;28;20079;-61
2022/10/09 05:48:34;;;;;;;11.57;7.30;;;5.80;99.90;;;;;;5014081;28;20147;-61
2022/10/09 05:51:13;;;;;;;10.35;8.02;;;5.80;99.90;;;;;;5061850;28;20086;-61
2022/10/09 05:53:40;;;;;;;11.20;7.95;;;5.80;99.90;;;;;;5057400;28;20048;-62
2022/10/09 05:56:28;;;;;;;11.43;7.40;;;5.80;99.90;;;;;;5043408;28;20056;-61
2022/10/09 05:58:56;;;;;;;8.55;7.32;;;5.80;99.90;;;;;;5057459;28;20044;-62
2022/10/09 06:01:24;;;;;;;12.35;8.05;;;5.80;99.90;;;;;;5062489;28;20055;-62
2022/10/09 06:03:52;;;;;;;8.85;7.60;;;5.90;99.90;;;;;;5038616;28;20071;-62
2022/10/09 06:06:20;;;;;;;10.57;7.93;;;5.90;99.90;;;;;;5062691;28;20040;-61
2022/10/09 06:08:48;;;;;;;11.43;8.02;;;5.90;99.90;;;;;;5039780;28;20923;-61
2022/10/09 06:11:27;;;;;;;11.75;8.27;;;6.00;99.90;;;;;;5051975;28;20048;-61
2022/10/09 06:13:58;;;;;;;8.88;7.63;;;6.00;99.90;;;;;;5012643;28;20155;-62
2022/10/09 06:16:26;;;;;;;11.75;8.25;;;6.00;99.90;;;;;;5053477;28;20076;-61
2022/10/09 06:18:53;;;;;;;10.27;7.78;;;6.10;99.90;;;;;;5046976;28;20052;-62
2022/10/09 06:21:20;;;;;;;12.55;8.35;;;6.10;99.90;;;;;;5028340;28;20518;-62
2022/10/09 06:23:54;;;;;;;13.02;9.00;;;6.20;99.90;;;;;;5043316;28;20059;-61
2022/10/09 06:26:25;;;;;;;14.43;9.20;;;6.30;99.90;;;;;;5047890;28;20040;-61
2022/10/09 06:28:52;;;;;;;11.25;8.38;;;6.50;99.90;;;;;;5028687;28;20810;-62
2022/10/09 06:31:20;;;;;;;9.93;7.45;;;6.70;99.90;;;;;;5044170;28;20560;-62
2022/10/09 06:33:47;;;;;;;13.93;8.35;;;7.00;99.90;;;;;;5034718;28;20098;-61
2022/10/09 06:36:18;;;;;;;13.00;8.07;;;7.30;99.90;;;;;;5047488;28;20168;-61
2022/10/09 06:38:44;;;;;;;11.48;7.93;;;7.50;99.90;;;;;;5051135;28;20131;-61
2022/10/09 06:41:19;;;;;;;16.80;7.95;;;7.80;99.90;;;;;;5052300;28;20087;-62
2022/10/09 06:43:56;;;;;;;11.75;7.45;;;8.00;99.90;;;;;;5048842;28;20169;-61
2022/10/09 06:46:29;;;;;;;10.13;7.85;;;8.20;99.90;;;;;;5056926;28;20346;-62
2022/10/09 06:48:55;;;;;;;16.17;11.48;;;8.30;99.90;;;;;;5027669;28;20400;-60
2022/10/09 06:51:22;;;;;;;11.35;8.18;;;8.40;99.90;;;;;;5047129;28;20043;-61
2022/10/09 06:53:52;;;;;;;9.48;7.88;;;8.50;99.90;;;;;;5050181;28;20048;-61
2022/10/09 06:56:19;;;;;;;11.98;7.72;;;8.60;99.90;;;;;;5052988;28;20048;-61
2022/10/09 06:58:49;;;;;;;10.38;7.18;;;8.60;99.90;;;;;;5050084;28;20051;-61
2022/10/09 07:01:20;;;;;;;11.32;7.25;;;8.60;99.90;;;;;;5047000;28;20140;-61
2022/10/09 07:03:47;;;;;;;13.65;7.72;;;8.50;99.90;;;;;;5047865;28;20040;-61
2022/10/09 07:06:18;;;;;;;13.82;7.88;;;8.50;99.90;;;;;;5055666;28;20049;-60
2022/10/09 07:08:50;;;;;;;11.15;8.23;;;8.40;99.90;;;;;;5044663;28;20040;-60
2022/10/09 07:11:22;;;;;;;11.43;7.68;;;8.40;99.90;;;;;;5021055;28;20072;-60
2022/10/09 07:13:51;;;;;;;11.60;7.55;;;8.40;99.90;;;;;;5058366;28;20498;-61
2022/10/09 07:16:21;;;;;;;13.25;7.40;;;8.40;99.90;;;;;;5059881;28;20155;-61
2022/10/09 07:18:47;;;;;;;10.60;8.02;;;8.60;99.90;;;;;;5057727;28;20044;-61
2022/10/09 07:21:15;;;;;;;13.30;7.72;;;8.70;99.90;;;;;;5060495;28;20101;-61
2022/10/09 07:23:41;;;;;;;10.70;7.25;;;8.90;99.90;;;;;;5052629;28;20466;-61
2022/10/09 07:26:14;;;;;;;11.07;6.63;;;9.00;99.90;;;;;;5056432;28;20685;-62
2022/10/09 07:28:40;;;;;;;12.82;7.25;;;9.20;99.90;;;;;;5055126;28;20040;-62
2022/10/09 07:31:06;;;;;;;15.65;7.57;;;9.30;99.90;;;;;;5059193;28;20282;-59
2022/10/09 07:33:32;;;;;;;12.35;6.90;;;9.50;99.90;;;;;;5067575;28;20271;-62
2022/10/09 07:36:00;;;;;;;12.45;6.05;;;9.60;99.90;;;;;;5058291;28;20049;-61
2022/10/09 07:38:27;;;;;;;9.02;6.25;;;9.60;99.90;;;;;;5059900;28;20044;-61
2022/10/09 07:40:53;;;;;;;9.90;6.13;;;9.80;99.90;;;;;;5059867;28;20048;-62
2022/10/09 07:43:20;;;;;;;9.90;5.82;;;9.80;99.90;;;;;;5059957;28;20131;-62
2022/10/09 07:45:46;;;;;;;9.27;6.43;;;9.90;99.90;;;;;;5054109;28;20123;-62
2022/10/09 07:48:12;;;;;;;12.20;6.80;;;10.10;99.90;;;;;;5054399;28;20297;-62
2022/10/09 07:50:39;;;;;;;10.60;6.13;;;10.10;99.90;;;;;;5047332;28;20088;-59
2022/10/09 07:53:05;;;;;;;10.07;6.05;;;10.20;99.90;;;;;;5061137;28;20141;-62
2022/10/09 07:55:30;;;;;;;10.82;5.60;;;10.30;99.90;;;;;;5056959;28;20480;-62
2022/10/09 07:57:56;;;;;;;14.55;6.05;;;10.50;99.90;;;;;;5057101;28;20848;-62
2022/10/09 08:00:22;;;;;;;8.13;5.97;;;10.60;99.90;;;;;;5063321;28;20078;-61
2022/10/09 08:02:48;;;;;;;9.27;5.32;;;10.70;99.90;;;;;;5059811;28;20475;-62
2022/10/09 08:05:13;;;;;;;9.27;5.53;;;10.80;99.90;;;;;;5053875;28;20106;-62
2022/10/09 08:07:39;;;;;;;11.00;5.78;;;10.90;99.90;;;;;;5067078;28;20041;-62
2022/10/09 08:10:05;;;;;;;12.73;5.97;;;11.00;99.90;;;;;;5059802;28;20177;-62
2022/10/09 08:12:40;;;;;;;8.82;5.40;;;11.00;99.90;;;;;;5060343;28;20047;-62
2022/10/09 08:15:06;;;;;;;11.07;6.05;;;11.00;99.90;;;;;;5058160;28;20048;-61
2022/10/09 08:17:32;;;;;;;9.98;5.72;;;11.00;99.90;;;;;;5059722;28;20071;-61
2022/10/09 08:19:58;;;;;;;8.48;5.43;;;11.00;99.90;;;;;;5060980;28;20838;-62
2022/10/09 08:22:26;;;;;;;10.45;5.43;;;11.10;99.90;;;;;;5059558;28;20121;-62
2022/10/09 08:24:52;;;;;;;9.23;5.60;;;11.10;99.90;;;;;;5059252;28;20118;-62
2022/10/09 08:27:17;;;;;;;12.60;5.45;;;11.00;99.90;;;;;;5059223;28;20052;-62
2022/10/09 08:29:43;;;;;;;12.70;6.13;;;11.00;99.90;;;;;;5058923;28;20048;-62
2022/10/09 08:32:14;;;;;;;11.70;5.75;;;11.10;99.90;;;;;;5058345;28;20048;-61
2022/10/09 08:34:40;;;;;;;11.20;5.72;;;11.10;99.90;;;;;;5059245;28;20101;-61
2022/10/09 08:37:06;;;;;;;12.85;5.45;;;11.10;99.90;;;;;;5059719;28;20041;-61
2022/10/09 08:39:31;;;;;;;11.70;5.10;;;11.10;99.90;;;;;;5059544;28;20048;-62
2022/10/09 08:42:02;;;;;;;11.35;5.63;;;11.10;99.90;;;;;;5048811;28;20644;-61
2022/10/09 08:44:40;;;;;;;14.23;5.53;;;11.20;99.90;;;;;;5059205;28;20052;-62
2022/10/09 08:47:21;;;;;;;8.45;5.25;;;11.20;99.90;;;;;;5059005;28;20539;-62
2022/10/09 08:49:59;;;;;;;10.10;5.03;;;11.30;99.90;;;;;;5056745;28;20040;-61
2022/10/09 08:52:45;;;;;;;14.40;6.35;;;11.40;99.90;;;;;;5047208;28;20044;-63
2022/10/09 08:55:23;;;;;;;9.10;5.57;;;11.40;99.90;;;;;;5043622;28;20045;-62
2022/10/09 08:57:51;;;;;;;13.43;5.25;;;11.50;99.90;;;;;;5033614;28;20080;-62
2022/10/09 09:00:26;;;;;;;8.48;4.90;;;11.60;99.90;;;;;;5048299;28;20532;-64
2022/10/09 09:03:30;;;;;;;12.75;5.15;;;11.70;99.90;;;;;;5023923;28;20515;-61
2022/10/09 09:06:07;;;;;;;12.52;5.25;;;11.80;99.90;;;;;;5047332;28;20051;-63
2022/10/09 09:09:02;;;;;;;10.48;5.65;;;12.00;99.90;;;;;;5055134;28;20056;-61
2022/10/09 09:11:45;;;;;;;16.05;6.30;;;12.10;99.90;;;;;;4975526;28;20050;-63
2022/10/09 09:14:32;;;;;;;12.05;4.85;;;12.10;99.90;;;;;;4961176;28;20130;-63
2022/10/09 09:17:33;;;;;;;9.02;5.15;;;12.20;99.90;;;;;;4962676;28;20066;-63
2022/10/09 09:20:11;;;;;;;11.95;5.40;;;12.40;99.90;;;;;;4939370;28;20959;-63
2022/10/09 09:22:42;;;;;;;7.82;4.93;;;12.50;99.90;;;;;;4938052;29;20936;-63
2022/10/09 09:25:27;;;;;;;9.13;5.80;;;12.60;99.90;;;;;;4924005;29;20059;-62
2022/10/09 09:27:57;;;;;;;16.60;5.65;;;12.70;99.90;;;;;;4947979;28;20137;-63
2022/10/09 09:30:30;;;;;;;12.10;5.93;;;12.80;99.90;;;;;;4945614;28;20083;-64
2022/10/09 09:33:00;;;;;;;;;;;13.00;99.90;;;;;;4925111;28;20059;-63
2022/10/09 09:35:50;;;;;;;8.02;5.40;;;13.10;99.90;;;;;;4922137;29;20857;-63
2022/10/09 09:38:15;;;;;;;10.98;4.90;;;13.10;99.90;;;;;;4942434;28;20914;-63
2022/10/09 09:40:43;;;;;;;11.20;4.75;;;13.20;99.90;;;;;;4941367;28;20070;-64
2022/10/09 09:43:19;;;;;;;9.27;5.18;;;13.20;99.90;;;;;;4945820;28;20110;-63
2022/10/09 09:45:55;;;;;;;13.15;4.75;;;13.20;99.90;;;;;;4924805;29;20059;-63
2022/10/09 09:48:30;;;;;;;10.82;4.75;;;13.20;99.90;;;;;;4947155;28;20059;-63
2022/10/09 09:50:56;;;;;;;11.30;4.70;;;13.20;99.90;;;;;;4949046;28;20065;-63
2022/10/09 09:53:29;;;;;;;11.23;5.32;;;13.20;99.90;;;;;;4947952;28;20070;-63
2022/10/09 09:55:58;;;;;;;11.98;5.00;;;13.30;99.90;;;;;;4974787;28;20052;-63
2022/10/09 09:58:47;;;;;;;13.32;5.53;;;13.30;99.90;;;;;;5042537;28;20170;-64
2022/10/09 10:01:28;;;;;;;11.88;4.43;;;13.40;99.90;;;;;;5059946;28;20056;-63
2022/10/09 10:03:57;;;;;;;12.95;4.68;;;13.40;99.90;;;;;;5060479;28;20036;-63
2022/10/09 10:06:22;;;;;;;10.25;4.05;;;13.40;99.90;;;;;;5064924;28;20044;-63
2022/10/09 10:09:04;;;;;;;12.77;4.10;;;13.50;99.90;;;;;;5045438;28;20122;-63
2022/10/09 10:11:34;;;;;;;13.27;4.47;;;13.70;99.90;;;;;;5056059;28;20048;-63
2022/10/09 10:14:08;;;;;;;8.07;4.32;;;13.70;99.90;;;;;;5059821;28;20052;-64
2022/10/09 10:16:36;;;;;;;7.32;4.03;;;13.70;99.90;;;;;;5039286;28;20573;-63
2022/10/09 10:19:04;;;;;;;9.88;4.05;;;13.70;99.90;;;;;;5035769;28;20099;-63
2022/10/09 10:21:40;;;;;;;12.32;3.28;;;13.80;99.90;;;;;;5057172;28;20048;-64
2022/10/09 10:24:11;;;;;;;10.02;4.03;;;13.80;99.90;;;;;;5056781;28;20032;-63
2022/10/09 10:26:46;;;;;;;10.18;3.63;;;13.90;99.90;;;;;;5042715;28;20515;-63
2022/10/09 10:29:14;;;;;;;8.55;3.85;;;13.90;99.90;;;;;;5041994;28;20049;-64
2022/10/09 10:31:56;;;;;;;11.55;4.05;;;13.90;99.90;;;;;;5042912;28;20067;-64
2022/10/09 10:34:46;;;;;;;10.20;4.18;;;14.00;99.90;;;;;;5067276;28;20054;-63
2022/10/09 10:37:12;;;;;;;8.88;4.18;;;14.00;99.90;;;;;;5059991;28;20036;-64
2022/10/09 10:40:03;;;;;;;10.25;4.40;;;14.00;99.90;;;;;;5063073;28;20240;-63
2022/10/09 10:43:00;;;;;;;7.90;4.07;;;14.00;99.90;;;;;;5060886;28;20044;-63
2022/10/09 10:45:46;;;;;;;14.02;4.07;;;14.10;99.90;;;;;;5061159;28;20045;-64
2022/10/09 10:48:18;;;;;;;10.23;3.33;;;14.10;99.90;;;;;;5060808;28;20135;-63
2022/10/09 10:51:23;;;;;;;8.40;3.38;;;14.10;99.90;;;;;;5061252;28;20049;-63
2022/10/09 10:54:06;;;;;;;10.77;3.25;;;14.10;99.90;;;;;;5061951;28;20064;-63
2022/10/09 10:56:47;;;;;;;9.82;3.00;;;14.10;99.90;;;;;;5043095;28;20052;-63
2022/10/09 10:59:34;;;;;;;8.82;3.15;;;14.10;99.90;;;;;;5049945;28;20521;-64
2022/10/09 11:02:09;;;;;;;10.18;3.58;;;14.20;99.90;;;;;;5059614;28;20083;-63
2022/10/09 11:05:14;;;;;;;11.02;3.28;;;14.10;99.90;;;;;;5060222;28;20444;-64
2022/10/09 11:08:25;;;;;;;9.38;3.47;;;14.10;99.90;;;;;;5058325;28;20554;-63
2022/10/09 11:11:15;;;;;;;8.95;2.88;;;14.10;99.90;;;;;;5034318;28;20166;-64
2022/10/09 11:14:11;;;;;;;7.13;2.50;;;14.10;99.90;;;;;;5047274;28;20087;-64
2022/10/09 11:16:58;;;;;;;12.77;3.55;;;14.20;99.90;;;;;;5028749;28;20053;-65
2022/10/09 11:19:42;;;;;;;7.18;2.85;;;14.20;99.90;;;;;;5046113;28;20155;-64
2022/10/09 11:22:16;;;;;;;;;;;14.30;99.90;;;;;;5052262;28;20044;-64
2022/10/09 11:25:04;;;;;;;13.27;3.83;;;14.30;99.90;;;;;;5057979;28;20647;-65
2022/10/09 11:27:51;;;;;;;11.63;3.92;;;14.30;99.90;;;;;;5062194;28;21029;-64
2022/10/09 11:30:17;;;;;;;11.50;3.17;;;14.30;99.90;;;;;;5065751;28;20453;-64
2022/10/09 11:32:49;;;;;;;8.65;3.10;;;14.40;99.90;;;;;;5061610;28;20056;-64
2022/10/09 11:35:21;;;;;;;8.10;3.00;;;14.40;99.90;;;;;;5049300;28;20084;-63
2022/10/09 11:38:25;;;;;;;9.70;3.22;;;14.40;99.90;;;;;;5057967;28;20052;-64
2022/10/09 11:40:52;;;;;;;10.40;4.15;;;14.40;99.90;;;;;;5059257;28;20132;-65
2022/10/09 11:43:23;;;;;;;9.60;3.38;;;14.40;99.90;;;;;;5064526;28;20113;-64
2022/10/09 11:45:52;;;;;;;14.02;4.72;;;14.50;99.90;;;;;;5065829;28;20490;-65
2022/10/09 11:48:26;;;;;;;8.65;3.35;;;14.50;99.90;;;;;;5060898;28;20411;-65
2022/10/09 11:51:15;;;;;;;11.60;3.75;;;14.50;99.90;;;;;;5066248;28;20065;-65
2022/10/09 11:53:42;;;;;;;11.60;4.00;;;14.50;99.90;;;;;;5059171;28;20048;-65
2022/10/09 11:56:29;;;;;;;10.70;3.38;;;14.60;99.90;;;;;;5056069;28;20044;-64
2022/10/09 11:58:56;;;;;;;13.52;4.05;;;14.60;99.90;;;;;;5061040;28;20136;-66
2022/10/09 12:01:25;;;;;;;9.77;3.60;;;14.60;99.90;;;;;;5060761;28;20407;-65
2022/10/09 12:04:00;;;;;;;6.97;3.20;;;14.70;99.90;;;;;;5071344;28;20773;-65
2022/10/09 12:06:30;;;;;;;9.07;2.55;;;14.70;99.90;;;;;;5067650;28;20044;-65
2022/10/09 12:08:56;;;;;;;9.27;2.60;;;14.70;99.90;;;;;;5046825;28;20842;-66
2022/10/09 12:11:23;;;;;;;11.35;2.85;;;14.70;99.90;;;;;;5057979;28;20056;-65
2022/10/09 12:13:56;;;;;;;8.43;3.03;;;14.70;99.90;;;;;;5060272;28;20111;-66
2022/10/09 12:16:30;;;;;;;9.07;3.08;;;14.80;99.90;;;;;;5066682;28;20048;-66
2022/10/09 12:19:01;;;;;;;6.28;2.40;;;14.80;99.90;;;;;;5055917;28;20097;-65
2022/10/09 12:21:34;;;;;;;8.05;3.28;;;14.90;99.90;;;;;;5062081;28;20075;-66
2022/10/09 12:24:00;;;;;;;7.53;3.15;;;14.80;99.90;;;;;;5055733;28;20068;-65
2022/10/09 12:26:26;;;;;;;13.38;3.40;;;14.80;99.90;;;;;;5060204;28;20113;-65
2022/10/09 12:29:04;;;;;;;9.25;2.58;;;14.80;99.90;;;;;;5060220;28;20048;-65
2022/10/09 12:31:35;;;;;;;8.63;3.08;;;14.80;99.90;;;;;;5062486;28;20059;-65
2022/10/09 12:34:31;;;;;;;11.30;3.10;;;14.90;99.90;;;;;;5047547;28;20088;-66
2022/10/09 12:37:20;;;;;;;9.25;3.00;;;14.90;99.90;;;;;;5059437;28;20140;-64
2022/10/09 12:39:48;;;;;;;9.02;3.13;;;14.90;99.90;;;;;;5059433;28;20044;-65
2022/10/09 12:42:21;;;;;;;10.45;3.10;;;14.90;99.90;;;;;;5061326;28;20055;-66
2022/10/09 12:44:49;;;;;;;7.03;2.97;;;14.90;99.90;;;;;;5060023;28;20087;-65
2022/10/09 12:47:25;;;;;;;8.15;3.05;;;15.00;99.90;;;;;;5054920;28;20053;-65
2022/10/09 12:50:15;;;;;;;10.50;3.90;;;15.00;99.90;;;;;;5042909;28;20402;-65
2022/10/09 12:52:49;;;;;;;11.52;3.75;;;15.00;99.90;;;;;;5047033;28;20056;-65
2022/10/09 12:55:34;;;;;;;7.65;3.67;;;15.00;99.90;;;;;;5046868;28;20241;-65
2022/10/09 12:58:23;;;;;;;10.48;3.67;;;15.10;99.90;;;;;;5059526;28;20072;-65
2022/10/09 13:00:52;;;;;;;8.55;3.47;;;15.10;99.90;;;;;;4959491;28;20055;-66
2022/10/09 13:03:58;;;;;;;11.75;4.10;;;15.10;99.90;;;;;;4959463;28;20158;-65
2022/10/09 13:06:35;;;;;;;9.90;4.00;;;15.10;99.90;;;;;;4878620;29;20082;-65
2022/10/09 13:09:06;;;;;;;10.82;3.60;;;15.20;99.90;;;;;;4883299;29;20052;-64
2022/10/09 13:11:33;;;;;;;8.27;3.60;;;15.10;99.90;;;;;;4893237;29;20064;-65